M I D A S
Marine Information and Data Acquisition System
Tripno 1782 of the Zeeleeuw from 2009-09-22 06:49:20 to 2009-09-22 14:29:12
Back to CruiseResearch ActivitiesStationsMapUnderway DataData graphs

EquipmentUnitsComment
TimeDGPSUTC
LatitudeDGPSDM.mWGS84
LongitudeDGPSDM.mWGS84
TemperatureSBE03/SBE38deg celciusITS90
ConductivitySBE21S/mITS90
SalinitySBE21 Practical Salinity Units
ChlorophylAChelsea fluorimeterg/lCalibrated in Aceton
Missing or incorrect values are displayed as -999
Sea surface data collected by the RV Zeeleeuw from 2009-09-22 06:50:13 to 2009-09-22 14:35:28
Time Latitude Longitude Temperature Conductivity Salinity ChlorophylA
2009-09-22 06:51:19 51°13.662 2°55.96 20.718 0.026051 0.144222 10.143129
2009-09-22 06:52:19 51°13.662 2°55.96 20.7151 0.026051 0.144237 10.108305
2009-09-22 06:53:19 51°13.662 2°55.96 20.7209 0.026051 0.144257 10.108305
2009-09-22 06:54:19 51°13.663 2°55.959 20.714 0.026051 0.144284 10.108305
2009-09-22 06:55:19 51°13.661 2°55.96 20.7327 0.026051 0.144299 10.108305
2009-09-22 06:56:20 51°13.669 2°55.931 20.6998 0.026051 0.144378 10.108305
2009-09-22 06:57:22 51°13.692 2°55.836 20.7274 0.026051 0.144396 10.108305
2009-09-22 06:58:22 51°13.692 2°55.75 20.7399 0.026051 0.144381 10.108305
2009-09-22 06:59:22 51°13.699 2°55.734 20.7743 0.026051 0.144383 10.108305
2009-09-22 07:00:21 51°13.75 2°55.703 20.6416 0.026051 0.144425 10.108305
2009-09-22 07:01:20 51°13.862 2°55.61 20.677 0.026051 0.14444 10.073481
2009-09-22 07:02:19 51°13.995 2°55.506 20.6859 0.025949 0.143921 10.073481
2009-09-22 07:03:18 51°14.136 2°55.395 20.6999 0.025949 0.143928 10.108305
2009-09-22 07:04:19 51°14.267 2°55.232 20.7307 0.025949 0.143921 10.073481
2009-09-22 07:05:18 51°14.392 2°55.025 20.6696 0.025949 0.143978 10.108305
2009-09-22 07:06:18 51°14.544 2°54.85 20.6522 0.026154 0.145179 10.143129
2009-09-22 07:07:18 51°14.706 2°54.692 20.7005 0.026154 0.145144 10.143129
2009-09-22 07:08:18 51°14.868 2°54.538 20.6741 0.026051 0.144545 10.108305
2009-09-22 07:09:18 51°15.032 2°54.393 20.6727 0.026257 0.145749 10.108305
2009-09-22 07:10:19 51°15.201 2°54.249 20.6781 0.026154 0.145246 10.108305
2009-09-22 07:11:19 51°15.369 2°54.109 20.6512 0.026154 0.145357 10.108305
2009-09-22 07:12:19 51°15.533 2°53.957 20.6695 0.026154 0.145598 10.108305
2009-09-22 07:13:19 51°15.692 2°53.789 20.6801 0.026154 0.145606 10.108305
2009-09-22 07:14:19 51°15.852 2°53.618 20.6613 0.026051 0.145099 10.108305
2009-09-22 07:15:19 51°16.011 2°53.447 20.6614 0.026051 0.145134 10.108305
2009-09-22 07:16:19 51°16.172 2°53.276 20.6764 0.026051 0.14527 10.073481
2009-09-22 07:17:19 51°16.333 2°53.106 20.6727 0.026051 0.145336 10.108305
2009-09-22 07:18:19 51°16.496 2°52.936 20.6891 0.026154 0.145901 10.108305
2009-09-22 07:19:19 51°16.66 2°52.774 20.6853 0.026154 0.145957 10.108305
2009-09-22 07:20:19 51°16.824 2°52.611 20.6872 0.026051 0.145442 10.108305
2009-09-22 07:21:19 51°16.992 2°52.471 20.6829 0.026051 0.145571 10.073481
2009-09-22 07:22:19 51°17.162 2°52.338 20.6558 0.026257 0.146747 10.073481
2009-09-22 07:23:19 51°17.337 2°52.228 20.679 0.026566 0.148688 10.108305
2009-09-22 07:24:19 51°17.521 2°52.189 20.6678 0.02636 0.147517 10.108305
2009-09-22 07:25:19 51°17.707 2°52.164 20.6804 0.02636 0.147568 10.143129
2009-09-22 07:26:19 51°17.892 2°52.134 20.6758 0.026257 0.147116 10.143129
2009-09-22 07:27:19 51°18.076 2°52.097 20.706 0.026257 0.147245 10.143129
2009-09-22 07:28:19 51°18.26 2°52.062 20.6928 0.026875 0.150798 10.143129
2009-09-22 07:29:19 51°18.446 2°52.023 20.696 0.026257 0.147294 10.143129
2009-09-22 07:30:19 51°18.631 2°51.979 20.7256 0.026154 0.14673 10.143129
2009-09-22 07:31:19 51°18.816 2°51.934 20.7139 0.026257 0.147402 10.143129
2009-09-22 07:32:19 51°19 2°51.89 20.7296 0.026154 0.146802 10.143129
2009-09-22 07:33:19 51°19.184 2°51.848 20.7324 0.026257 0.147446 10.143129
2009-09-22 07:34:19 51°19.368 2°51.804 20.7474 0.026463 0.148669 10.177953
2009-09-22 07:35:19 51°19.551 2°51.763 20.7435 0.026257 0.147464 10.177953
2009-09-22 07:36:19 51°19.734 2°51.724 20.7371 0.027183 0.152738 10.212777
2009-09-22 07:37:19 51°19.92 2°51.699 20.7655 0.026566 0.149265 10.212777
2009-09-22 07:38:19 51°20.105 2°51.668 20.7651 0.026566 0.149281 10.247601
2009-09-22 07:39:19 51°20.29 2°51.642 20.7748 0.026463 0.148719 10.212777
2009-09-22 07:40:19 51°20.479 2°51.617 20.7894 0.02636 0.148141 10.212777
2009-09-22 07:41:19 51°20.666 2°51.59 20.7828 0.026772 0.150519 10.212777
2009-09-22 07:42:19 51°20.853 2°51.567 20.8101 0.02636 0.148258 10.247601
2009-09-22 07:43:19 51°21.038 2°51.543 20.8234 0.02636 0.148229 10.247601
2009-09-22 07:44:19 51°21.22 2°51.52 20.8276 0.026257 0.147664 10.247601
2009-09-22 07:45:19 51°21.401 2°51.493 20.8336 0.02636 0.148294 10.247601
2009-09-22 07:46:19 51°21.582 2°51.466 20.8287 0.026257 0.147726 10.247601
2009-09-22 07:47:19 51°21.765 2°51.442 20.8557 0.026463 0.148923 10.352073
2009-09-22 07:48:19 51°21.947 2°51.416 20.8513 0.026257 0.147757 10.49137
2009-09-22 07:49:19 51°22.133 2°51.391 20.8679 0.026463 0.148941 10.595842
2009-09-22 07:50:19 51°22.319 2°51.367 20.8664 0.02636 0.148378 10.66549
2009-09-22 07:51:19 51°22.504 2°51.348 20.8842 0.027492 0.154829 10.735138
2009-09-22 07:52:19 51°22.689 2°51.324 20.8884 0.026669 0.150163 10.874434
2009-09-22 07:53:19 51°22.873 2°51.296 20.8971 0.027698 0.15599 10.944082
2009-09-22 07:54:19 51°23.058 2°51.274 20.8987 0.027286 0.153693 11.048554
2009-09-22 07:55:19 51°23.241 2°51.256 20.9165 0.026978 0.151921 11.153027
2009-09-22 07:56:19 51°23.426 2°51.238 20.9236 0.027286 0.153693 11.257499
2009-09-22 07:57:19 51°23.61 2°51.219 20.93 0.028727 0.161895 11.361971
2009-09-22 07:58:19 51°23.793 2°51.196 20.9367 0.027595 0.155468 11.466443
2009-09-22 07:59:19 51°23.974 2°51.174 20.9518 0.027183 0.153167 11.570915
2009-09-22 08:00:19 51°24.158 2°51.15 20.965 0.028315 0.159589 11.710211
2009-09-22 08:01:19 51°24.34 2°51.127 20.9869 0.027904 0.157272 11.77986
2009-09-22 08:02:19 51°24.521 2°51.106 20.9824 0.027698 0.156145 11.95398
2009-09-22 08:03:19 51°24.702 2°51.084 20.9965 0.026875 0.151427 12.093276
2009-09-22 08:04:19 51°24.883 2°51.059 21.0144 0.027286 0.153789 12.162924
2009-09-22 08:05:19 51°25.062 2°51.034 21.0238 0.027801 0.156766 12.30222
2009-09-22 08:06:19 51°25.241 2°51.009 21.0126 0.027698 0.156184 12.406692
2009-09-22 08:07:19 51°25.418 2°50.979 21.0375 0.027286 0.153838 12.545989
2009-09-22 08:08:19 51°25.596 2°50.952 21.0388 0.027081 0.152663 12.685285
2009-09-22 08:09:19 51°25.775 2°50.923 21.0559 0.027389 0.154449 12.789757
2009-09-22 08:10:19 51°25.954 2°50.897 21.0751 0.026978 0.152131 12.929053
2009-09-22 08:11:19 51°26.134 2°50.871 21.0809 0.027492 0.155033 13.24247
2009-09-22 08:12:19 51°26.314 2°50.845 21.0885 0.027183 0.153328 13.451414
2009-09-22 08:13:19 51°26.494 2°50.818 21.0893 0.027698 0.156287 13.660358
2009-09-22 08:14:19 51°26.675 2°50.789 21.1014 0.027183 0.153349 13.869303
2009-09-22 08:15:19 51°26.857 2°50.766 21.1156 0.027286 0.153939 14.078247
2009-09-22 08:16:19 51°27.038 2°50.746 21.1286 0.028007 0.158016 14.252367
2009-09-22 08:17:19 51°27.218 2°50.728 21.1389 0.028315 0.159839 14.426488
2009-09-22 08:18:19 51°27.4 2°50.711 21.1371 0.027286 0.153988 14.635432
2009-09-22 08:19:19 51°27.579 2°50.692 21.156 0.028418 0.160419 14.809552
2009-09-22 08:20:19 51°27.758 2°50.672 21.1483 0.027801 0.156925 14.983672
2009-09-22 08:21:19 51°27.939 2°50.653 21.1656 0.028624 0.161619 15.157793
2009-09-22 08:22:19 51°28.119 2°50.633 21.1754 0.027801 0.156933 15.366737
2009-09-22 08:23:19 51°28.297 2°50.613 21.1844 0.027698 0.156362 15.540857
2009-09-22 08:24:19 51°28.475 2°50.586 21.1874 0.027286 0.154035 15.749802
2009-09-22 08:25:19 51°28.65 2°50.562 21.2113 0.028213 0.159322 15.923922
2009-09-22 08:26:19 51°28.819 2°50.487 21.2152 0.027183 0.15348 15.714978
2009-09-22 08:27:19 51°28.983 2°50.372 21.2058 0.027081 0.152896 15.923922
2009-09-22 08:28:19 51°29.15 2°50.258 21.2249 0.027389 0.154666 16.132866
2009-09-22 08:29:19 51°29.323 2°50.183 21.2198 0.028521 0.161131 16.306987
2009-09-22 08:30:19 51°29.484 2°50.246 21.2407 0.029653 0.16759 16.446283
2009-09-22 08:31:19 51°29.6 2°50.441 21.2584 0.030785 0.174019 16.690051
2009-09-22 08:32:19 51°29.662 2°50.695 21.2791 0.031403 0.177605 16.829347
2009-09-22 08:33:19 51°29.71 2°50.954 21.2648 0.029036 0.164071 17.003468
2009-09-22 08:34:19 51°29.752 2°51.216 21.2825 0.030374 0.171707 17.142764
2009-09-22 08:35:19 51°29.794 2°51.478 21.2924 0.030991 0.175237 17.351708
2009-09-22 08:36:19 51°29.839 2°51.743 21.3043 0.029859 0.168753 17.491004
2009-09-22 08:37:19 51°29.883 2°52.003 21.3186 0.031094 0.175816 17.665125
2009-09-22 08:38:19 51°29.927 2°52.265 21.3156 0.028727 0.162338 17.804421
2009-09-22 08:39:19 51°29.971 2°52.531 21.3308 0.030271 0.171125 17.943717
2009-09-22 08:40:19 51°30.013 2°52.795 21.3288 0.029447 0.166464 18.048189
2009-09-22 08:41:19 51°30.057 2°53.057 21.3466 0.029139 0.164679 18.222309
2009-09-22 08:42:19 51°30.099 2°53.321 21.354 0.030065 0.169928 18.39643
2009-09-22 08:43:19 51°30.165 2°53.567 21.3591 0.027595 0.155886 18.500902
2009-09-22 08:44:19 51°30.243 2°53.808 21.3819 0.029242 0.165248 18.605374
2009-09-22 08:45:19 51°30.321 2°54.047 21.3766 0.028933 0.163499 18.74467
2009-09-22 08:46:19 51°30.393 2°54.287 21.3919 0.028521 0.16116 18.849142
2009-09-22 08:47:18 51°30.456 2°54.531 21.4098 0.029242 0.165283 18.953615
2009-09-22 08:48:19 51°30.515 2°54.785 21.4204 0.029036 0.164107 19.058087
2009-09-22 08:49:19 51°30.574 2°55.038 21.4213 0.030785 0.174056 19.232207
2009-09-22 08:50:19 51°30.633 2°55.288 21.4218 0.027801 0.157062 19.301855
2009-09-22 08:51:19 51°30.7 2°55.535 21.4547 0.029036 0.164086 19.406327
2009-09-22 08:52:19 51°30.764 2°55.781 21.4793 0.030477 0.172329 19.475975
2009-09-22 08:53:19 51°30.831 2°56.027 21.4694 0.029036 0.164074 19.615272
2009-09-22 08:54:19 51°30.907 2°56.261 21.4865 0.030168 0.170546 19.68492
2009-09-22 08:55:19 51°30.989 2°56.488 21.5043 0.030374 0.171722 19.789392
2009-09-22 08:56:19 51°31.079 2°56.709 21.5053 0.031197 0.176436 19.85904
2009-09-22 08:57:19 51°31.175 2°56.921 21.4977 0.029139 0.164658 19.928688
2009-09-22 08:58:19 51°31.275 2°57.12 21.5289 0.03202 0.181151 19.998336
2009-09-22 08:59:19 51°31.375 2°57.323 21.531 0.028315 0.159956 20.067984
2009-09-22 09:00:19 51°31.478 2°57.525 21.5677 0.029962 0.169356 20.102808
2009-09-22 09:01:19 51°31.59 2°57.713 21.5644 0.030579 0.172886 20.137632
2009-09-22 09:02:19 51°31.705 2°57.902 21.5459 0.030477 0.17227 20.242105
2009-09-22 09:03:19 51°31.817 2°58.096 21.5728 0.031506 0.178158 20.242105
2009-09-22 09:04:19 51°31.929 2°58.292 21.5696 0.028418 0.160519 20.346577
2009-09-22 09:05:19 51°32.044 2°58.484 21.6006 0.028933 0.16347 20.416225
2009-09-22 09:06:19 51°32.164 2°58.668 21.6012 0.029859 0.168722 20.520697
2009-09-22 09:07:19 51°32.292 2°58.832 21.5997 0.029447 0.166365 20.590345
2009-09-22 09:08:19 51°32.429 2°58.963 21.6193 0.027183 0.153447 20.590345
2009-09-22 09:09:19 51°32.572 2°59.079 21.6425 0.028933 0.163426 20.659993
2009-09-22 09:10:19 51°32.723 2°59.025 21.639 0.028933 0.163412 20.694817
2009-09-22 09:11:19 51°32.865 2°58.883 21.6601 0.026978 0.152298 20.729641
2009-09-22 09:12:19 51°32.999 2°58.724 21.6695 0.026875 0.151692 20.799289
2009-09-22 09:13:19 51°33.12 2°58.537 21.6803 0.027081 0.152861 20.834113
2009-09-22 09:14:19 51°33.241 2°58.341 21.6819 0.026978 0.152274 20.834113
2009-09-22 09:15:19 51°33.356 2°58.136 21.689 0.027698 0.156376 20.868938
2009-09-22 09:16:19 51°33.464 2°57.924 21.6914 0.026978 0.152276 20.903762
2009-09-22 09:17:19 51°33.571 2°57.707 21.7043 0.027183 0.153437 20.97341
2009-09-22 09:18:19 51°33.679 2°57.477 21.7191 0.026772 0.151119 21.043058
2009-09-22 09:19:19 51°33.782 2°57.243 21.7283 0.026772 0.151106 21.043058
2009-09-22 09:20:19 51°33.877 2°57.009 21.7348 0.026978 0.152255 21.112706
2009-09-22 09:21:19 51°33.972 2°56.766 21.7425 0.026772 0.151095 21.182354
2009-09-22 09:22:19 51°34.066 2°56.519 21.7524 0.026669 0.150501 21.252002
2009-09-22 09:23:19 51°34.145 2°56.27 21.7507 0.027389 0.154627 21.286826
2009-09-22 09:24:20 51°34.203 2°55.997 21.7604 0.027286 0.154026 21.356474
2009-09-22 09:25:19 51°34.21 2°55.703 21.778 0.027081 0.152863 22.122603
2009-09-22 09:26:20 51°34.123 2°55.427 21.7813 0.027183 0.153453 22.227076
2009-09-22 09:27:19 51°34.007 2°55.17 21.7866 0.027698 0.156398 22.331548
2009-09-22 09:28:19 51°33.893 2°54.897 21.8036 0.027492 0.155206 22.61014
2009-09-22 09:29:19 51°33.783 2°54.62 21.8137 0.027389 0.154583 22.819085
2009-09-22 09:30:20 51°33.672 2°54.348 21.8279 0.027389 0.154611 22.993205
2009-09-22 09:31:19 51°33.564 2°54.089 21.8233 0.027183 0.153439 23.202149
2009-09-22 09:32:19 51°33.45 2°53.817 21.8418 0.027286 0.154021 23.445918
2009-09-22 09:33:19 51°33.335 2°53.543 21.8446 0.027081 0.152831 23.654862
2009-09-22 09:34:19 51°33.222 2°53.268 21.8571 0.027595 0.155744 23.89863
2009-09-22 09:35:19 51°33.11 2°52.998 21.8698 0.027286 0.154018 24.037926
2009-09-22 09:36:19 51°32.995 2°52.727 21.8826 0.027389 0.154627 24.246871
2009-09-22 09:37:19 51°32.88 2°52.456 21.8891 0.027286 0.154024 24.455815
2009-09-22 09:38:19 51°32.762 2°52.182 21.8976 0.027081 0.152814 24.629935
2009-09-22 09:39:19 51°32.648 2°51.911 21.9055 0.027183 0.153434 24.804056
2009-09-22 09:40:20 51°32.532 2°51.636 21.9184 0.027081 0.152847 24.943352
2009-09-22 09:41:19 51°32.419 2°51.368 21.9196 0.027389 0.154597 25.082648
2009-09-22 09:42:19 51°32.303 2°51.092 21.9314 0.027698 0.156362 25.256768
2009-09-22 09:43:19 51°32.187 2°50.819 21.9458 0.027286 0.153994 25.36124
2009-09-22 09:44:19 51°32.07 2°50.541 21.9573 0.027286 0.153983 25.500537
2009-09-22 09:45:19 51°31.953 2°50.265 21.9598 0.027595 0.155744 25.605009
2009-09-22 09:46:19 51°31.839 2°49.988 21.9769 0.027389 0.154592 25.674657
2009-09-22 09:47:19 51°31.726 2°49.723 21.986 0.027183 0.153418 25.744305
2009-09-22 09:48:19 51°31.612 2°49.458 21.987 0.027081 0.152855 25.813953
2009-09-22 09:49:20 51°31.493 2°49.175 22.003 0.027801 0.156894 25.883601
2009-09-22 09:50:19 51°31.38 2°48.906 22.0019 0.026978 0.152247 25.918425
2009-09-22 09:51:19 51°31.267 2°48.636 22.0233 0.027389 0.154572 25.953249
2009-09-22 09:52:19 51°31.152 2°48.365 22.0365 0.027389 0.154567 25.988073
2009-09-22 09:53:19 51°31.037 2°48.092 22.0474 0.027286 0.153977 25.988073
2009-09-22 09:54:19 51°30.922 2°47.818 22.0488 0.027389 0.154542 26.057722
2009-09-22 09:55:19 51°30.812 2°47.537 22.055 0.02883 0.162767 26.057722
2009-09-22 09:56:19 51°30.812 2°47.246 22.0576 0.02811 0.158646 26.057722
2009-09-22 09:57:19 51°30.924 2°47.054 22.0859 0.02883 0.162747 25.988073
2009-09-22 09:58:19 51°31.079 2°46.992 22.098 0.029139 0.164514 26.092546
2009-09-22 09:59:19 51°31.239 2°46.99 22.0982 0.028418 0.160384 26.092546
2009-09-22 10:00:19 51°31.397 2°47.017 22.1177 0.028521 0.160984 26.12737
2009-09-22 10:01:19 51°31.553 2°47.047 22.1057 0.031711 0.179175 26.266666
2009-09-22 10:02:19 51°31.707 2°47.084 22.1164 0.029139 0.164496 26.197018
2009-09-22 10:03:19 51°31.861 2°47.115 22.1216 0.028727 0.162141 26.197018
2009-09-22 10:04:19 51°32.017 2°47.133 22.1248 0.0313 0.176795 26.336314
2009-09-22 10:05:19 51°32.173 2°47.157 22.1595 0.029756 0.167978 26.336314
2009-09-22 10:06:19 51°32.33 2°47.185 22.1711 0.02811 0.158618 26.336314
2009-09-22 10:07:19 51°32.485 2°47.213 22.1961 0.028213 0.159171 26.545258
2009-09-22 10:08:19 51°32.641 2°47.24 22.1948 0.029242 0.165056 26.405962
2009-09-22 10:09:19 51°32.798 2°47.266 22.2182 0.030579 0.17269 26.545258
2009-09-22 10:10:19 51°32.956 2°47.291 22.2026 0.031711 0.179162 26.719379
2009-09-22 10:11:19 51°33.114 2°47.316 22.2072 0.030682 0.173253 26.754203
2009-09-22 10:12:19 51°33.273 2°47.316 22.2392 0.03274 0.185039 26.371138
2009-09-22 10:13:19 51°33.435 2°47.307 22.2273 0.029653 0.167404 26.30149
2009-09-22 10:14:19 51°33.597 2°47.302 22.2368 0.029756 0.167966 26.719379
2009-09-22 10:15:19 51°33.758 2°47.301 22.2732 0.032638 0.184463 26.684555
2009-09-22 10:16:19 51°33.917 2°47.296 22.2521 0.027904 0.157437 26.719379
2009-09-22 10:17:19 51°34.078 2°47.294 22.277 0.029139 0.164455 26.719379
2009-09-22 10:18:19 51°34.237 2°47.292 22.2721 0.032432 0.183235 26.858675
2009-09-22 10:19:19 51°34.394 2°47.311 22.2908 0.031814 0.179721 26.754203
2009-09-22 10:20:19 51°34.551 2°47.331 22.2869 0.02955 0.166799 26.823851
2009-09-22 10:21:19 51°34.709 2°47.347 22.3127 0.028315 0.159739 26.858675
2009-09-22 10:22:19 51°34.864 2°47.36 22.3078 0.02883 0.16268 26.754203
2009-09-22 10:23:19 51°35.02 2°47.392 22.3306 0.030271 0.170882 26.858675
2009-09-22 10:24:19 51°35.169 2°47.466 22.3233 0.030579 0.172647 27.172091
2009-09-22 10:25:19 51°35.312 2°47.551 22.3274 0.031094 0.175575 27.172091
2009-09-22 10:26:19 51°35.457 2°47.631 22.3521 0.032535 0.183827 27.241739
2009-09-22 10:27:19 51°35.596 2°47.724 22.3474 0.02811 0.158564 27.172091
2009-09-22 10:28:19 51°35.736 2°47.83 22.3426 0.02883 0.162657 27.276563
2009-09-22 10:29:19 51°35.878 2°47.928 22.3854 0.032946 0.186154 27.381036
2009-09-22 10:30:19 51°36.019 2°48.027 22.3847 0.031094 0.175556 27.41586
2009-09-22 10:31:19 51°36.16 2°48.132 22.3893 0.030888 0.174397 27.276563
2009-09-22 10:32:19 51°36.303 2°48.227 22.3932 0.030065 0.169684 27.41586
2009-09-22 10:33:19 51°36.444 2°48.323 22.4198 0.032329 0.182613 27.41586
2009-09-22 10:34:19 51°36.588 2°48.417 22.4129 0.028624 0.161451 27.485508
2009-09-22 10:35:19 51°36.73 2°48.52 22.4341 0.029962 0.169082 27.41586
2009-09-22 10:36:15 51°36.862 2°48.61 22.4322 0.029653 0.167311 27.520332
2009-09-22 10:37:25 51°37.027 2°48.722 22.4396 0.02811 0.158505 27.520332
2009-09-22 10:38:25 51°37.17 2°48.817 22.4433 0.029756 0.167888 27.520332
2009-09-22 10:39:25 51°37.312 2°48.919 22.4602 0.032226 0.181955 27.659628
2009-09-22 10:40:25 51°37.451 2°49.023 22.4608 0.028213 0.159083 27.624804
2009-09-22 10:41:25 51°37.592 2°49.128 22.4424 0.032123 0.181363 27.798924
2009-09-22 10:42:25 51°37.729 2°49.236 22.4597 0.028418 0.160247 27.172091
2009-09-22 10:43:25 51°37.868 2°49.341 22.4809 0.030168 0.170191 27.41586
2009-09-22 10:44:25 51°38.008 2°49.447 22.5011 0.032432 0.183106 27.450684
2009-09-22 10:45:24 51°38.145 2°49.547 22.502 0.030888 0.174293 27.311387
2009-09-22 10:46:25 51°38.288 2°49.654 22.52 0.030271 0.17075 27.381036
2009-09-22 10:47:24 51°38.426 2°49.761 22.4956 0.030579 0.172488 27.624804
2009-09-22 10:48:25 51°38.567 2°49.881 22.5172 0.030785 0.173672 27.659628
2009-09-22 10:49:25 51°38.701 2°50.008 22.5192 0.029447 0.166026 27.624804
2009-09-22 10:50:25 51°38.839 2°50.129 22.525 0.032226 0.181859 27.7641
2009-09-22 10:51:25 51°38.975 2°50.256 22.5372 0.030682 0.173022 27.833748
2009-09-22 10:52:25 51°39.114 2°50.375 22.5505 0.028007 0.157808 27.694452
2009-09-22 10:53:25 51°39.249 2°50.501 22.5719 0.030785 0.173618 27.729276
2009-09-22 10:54:25 51°39.387 2°50.628 22.5625 0.028213 0.158948 27.7641
2009-09-22 10:55:25 51°39.526 2°50.749 22.5665 0.031814 0.179469 27.93822
2009-09-22 10:56:25 51°39.663 2°50.874 22.5576 0.030579 0.172399 27.973045
2009-09-22 10:57:25 51°39.786 2°51.017 22.5818 0.032226 0.181804 27.93822
2009-09-22 10:58:25 51°39.742 2°51.252 22.5809 0.032432 0.182934 27.973045
2009-09-22 10:59:24 51°39.579 2°51.396 22.6049 0.029962 0.168849 27.93822
2009-09-22 11:00:25 51°39.406 2°51.55 22.6087 0.029756 0.167663 28.007869
2009-09-22 11:01:25 51°39.233 2°51.696 22.6146 0.030271 0.17057 28.007869
2009-09-22 11:02:24 51°39.059 2°51.823 22.6343 0.031917 0.179962 28.007869
2009-09-22 11:03:24 51°38.869 2°51.908 22.6339 0.033049 0.186403 28.216813
2009-09-22 11:04:24 51°38.681 2°51.998 22.6409 0.032226 0.181705 28.216813
2009-09-22 11:05:24 51°38.531 2°52.18 22.6494 0.030682 0.172889 28.181989
2009-09-22 11:06:24 51°38.441 2°52.426 22.6537 0.03274 0.184635 38.629205
2009-09-22 11:07:24 51°38.361 2°52.683 22.6536 0.030271 0.170536 36.330817
2009-09-22 11:08:24 51°38.285 2°52.944 22.6686 0.031403 0.177001 36.052225
2009-09-22 11:09:24 51°38.211 2°53.201 22.6733 0.029345 0.165275 36.574586
2009-09-22 11:10:24 51°38.136 2°53.462 22.6827 0.032638 0.18398 37.062123
2009-09-22 11:11:25 51°38.057 2°53.723 22.6921 0.0313 0.176404 37.828252
2009-09-22 11:12:24 51°37.983 2°53.981 22.7032 0.032535 0.183426 38.211316
2009-09-22 11:13:24 51°37.907 2°54.238 22.7032 0.032843 0.1852 39.256038
2009-09-22 11:14:24 51°37.828 2°54.497 22.7072 0.029345 0.165231 40.022167
2009-09-22 11:15:24 51°37.748 2°54.759 22.7203 0.030374 0.171057 40.788296
2009-09-22 11:16:24 51°37.634 2°54.993 22.725 0.031711 0.178672 41.206185
2009-09-22 11:17:24 51°37.45 2°55.087 22.7374 0.032123 0.180987 41.624074
2009-09-22 11:18:25 51°37.284 2°54.945 22.7415 0.028933 0.162824 42.041962
2009-09-22 11:19:25 51°37.137 2°54.738 22.7517 0.028521 0.160517 42.425027
2009-09-22 11:20:25 51°37.005 2°54.501 22.7598 0.029242 0.164599 42.703619
2009-09-22 11:21:24 51°36.881 2°54.26 22.7697 0.028315 0.159365 42.877739
2009-09-22 11:22:25 51°36.75 2°54.012 22.7775 0.028418 0.159928 43.121508
2009-09-22 11:23:26 51°36.62 2°53.767 22.7828 0.031917 0.179807 43.191156
2009-09-22 11:24:23 51°36.501 2°53.534 22.7919 0.029756 0.16748 43.295628
2009-09-22 11:25:27 51°36.396 2°53.264 22.7995 0.028213 0.158725 44.549294
2009-09-22 11:26:25 51°36.303 2°53.007 22.8027 0.029242 0.164561 45.315423
2009-09-22 11:27:25 51°36.209 2°52.744 22.8182 0.028213 0.158725 45.071655
2009-09-22 11:28:25 51°36.11 2°52.473 22.8244 0.028727 0.16163 45.280599
2009-09-22 11:29:25 51°36.011 2°52.201 22.8319 0.027801 0.156324 45.385071
2009-09-22 11:30:25 51°35.912 2°51.929 22.8436 0.028007 0.157536 45.489544
2009-09-22 11:31:24 51°35.819 2°51.667 22.8519 0.027801 0.156324 45.106479
2009-09-22 11:32:27 51°35.718 2°51.395 22.8502 0.028933 0.162734 45.524368
2009-09-22 11:33:25 51°35.627 2°51.147 22.8636 0.027698 0.155767 45.559192
2009-09-22 11:34:25 51°35.529 2°50.892 22.8721 0.02811 0.158069 45.350247
2009-09-22 11:35:25 51°35.432 2°50.623 22.8693 0.028933 0.162748 45.245775
2009-09-22 11:36:25 51°35.312 2°50.411 22.8844 0.027595 0.15514 45.210951
2009-09-22 11:37:25 51°35.167 2°50.545 22.8868 0.030888 0.17384 45.454719
2009-09-22 11:38:43 51°35.01 2°50.844 22.9001 0.030785 0.173211 45.489544
2009-09-22 11:39:43 51°34.881 2°51.068 22.9204 0.031711 0.178502 45.559192
2009-09-22 11:40:43 51°34.754 2°51.29 22.9101 0.029962 0.168502 45.559192
2009-09-22 11:41:43 51°34.632 2°51.513 22.9182 0.033049 0.186111 45.280599
2009-09-22 11:42:43 51°34.505 2°51.73 22.92 0.031094 0.174964 45.141303
2009-09-22 11:43:42 51°34.382 2°51.944 22.9264 0.030168 0.169674 45.176127
2009-09-22 11:44:43 51°34.258 2°52.163 22.9362 0.033461 0.188437 44.932359
2009-09-22 11:45:43 51°34.132 2°52.379 22.9433 0.033358 0.187849 44.932359
2009-09-22 11:46:43 51°34.005 2°52.595 22.9455 0.031917 0.179597 44.967183
2009-09-22 11:47:44 51°33.879 2°52.815 22.9558 0.030168 0.169629 45.106479
2009-09-22 11:48:43 51°33.766 2°53.036 22.9606 0.028624 0.160866 45.176127
2009-09-22 11:49:43 51°33.822 2°53.239 22.9618 0.027801 0.156191 45.210951
2009-09-22 11:50:43 51°33.956 2°53.373 22.9716 0.030065 0.169063 45.176127
2009-09-22 11:51:43 51°34.066 2°53.566 22.9802 0.032226 0.181349 45.141303
2009-09-22 11:52:43 51°34.15 2°53.796 22.9846 0.031711 0.178412 45.245775
2009-09-22 11:53:43 51°34.236 2°54.027 22.9919 0.032123 0.180763 45.176127
2009-09-22 11:54:44 51°34.325 2°54.26 23.0018 0.028624 0.160872 45.385071
2009-09-22 11:55:43 51°34.412 2°54.486 23.0002 0.032226 0.181333 45.176127
2009-09-22 11:56:43 51°34.503 2°54.707 23.0171 0.03202 0.18018 45.489544
2009-09-22 11:57:43 51°34.595 2°54.935 23.0146 0.028315 0.159116 45.524368
2009-09-22 11:58:43 51°34.691 2°55.156 23.0326 0.029859 0.167873 45.454719
2009-09-22 11:59:43 51°34.792 2°55.374 23.0403 0.031608 0.177817 45.350247
2009-09-22 12:00:44 51°34.892 2°55.596 23.0298 0.031814 0.178947 45.210951
2009-09-22 12:01:43 51°34.984 2°55.815 23.0505 0.032226 0.181291 45.489544
2009-09-22 12:02:43 51°35.08 2°56.04 23.0481 0.02811 0.157915 45.524368
2009-09-22 12:03:44 51°35.179 2°56.267 23.0485 0.031917 0.179503 45.385071
2009-09-22 12:04:43 51°35.275 2°56.482 23.0633 0.029962 0.168394 45.62884
2009-09-22 12:05:43 51°35.373 2°56.707 23.0698 0.030682 0.172453 45.80296
2009-09-22 12:06:43 51°35.471 2°56.931 23.0789 0.031608 0.177727 45.768136
2009-09-22 12:07:43 51°35.568 2°57.147 23.0768 0.028624 0.160792 45.837784
2009-09-22 12:08:43 51°35.666 2°57.369 23.0879 0.030888 0.173625 45.872608
2009-09-22 12:09:44 51°35.767 2°57.596 23.0832 0.031711 0.178271 45.524368
2009-09-22 12:10:44 51°35.833 2°57.847 23.0867 0.028213 0.158421 45.141303
2009-09-22 12:11:43 51°35.774 2°58.099 23.0961 0.033152 0.186456 45.210951
2009-09-22 12:12:44 51°35.602 2°58.227 23.1028 0.032638 0.183497 45.454719
2009-09-22 12:13:44 51°35.418 2°58.314 23.1043 0.033358 0.187592 45.315423
2009-09-22 12:14:43 51°35.235 2°58.389 23.1122 0.033564 0.188749 45.315423
2009-09-22 12:15:43 51°35.048 2°58.465 23.1168 0.034387 0.193426 45.280599
2009-09-22 12:16:43 51°34.857 2°58.538 23.1234 0.032535 0.182875 45.454719
2009-09-22 12:17:43 51°34.667 2°58.613 23.1333 0.031711 0.178163 45.698488
2009-09-22 12:18:43 51°34.479 2°58.691 23.1393 0.031608 0.177584 45.80296
2009-09-22 12:19:43 51°34.288 2°58.766 23.146 0.033564 0.188745 45.733312
2009-09-22 12:20:43 51°34.1 2°58.855 23.15 0.033564 0.188725 45.733312
2009-09-22 12:21:44 51°33.91 2°58.954 23.152 0.030065 0.168813 45.245775
2009-09-22 12:22:43 51°33.729 2°59.055 23.1577 0.032226 0.181079 45.489544
2009-09-22 12:23:43 51°33.541 2°59.161 23.1646 0.033461 0.188098 45.663664
2009-09-22 12:24:43 51°33.356 2°59.266 23.1744 0.031506 0.177006 45.698488
2009-09-22 12:25:43 51°33.168 2°59.376 23.1785 0.033358 0.187532 45.62884
2009-09-22 12:26:44 51°32.979 2°59.489 23.186 0.033358 0.187535 45.768136
2009-09-22 12:27:43 51°32.798 2°59.595 23.1845 0.0313 0.175789 45.768136
2009-09-22 12:28:43 51°32.618 2°59.697 23.1969 0.031917 0.179307 45.942256
2009-09-22 12:29:43 51°32.437 2°59.79 23.1992 0.032226 0.181079 45.97708
2009-09-22 12:30:44 51°32.247 2°59.82 23.2039 0.031917 0.179278 45.907432
2009-09-22 12:31:43 51°32.065 2°59.79 23.2136 0.031403 0.176345 46.081552
2009-09-22 12:32:44 51°31.885 2°59.696 23.2125 0.032329 0.181606 45.97708
2009-09-22 12:33:44 51°31.713 2°59.594 23.223 0.029756 0.167007 46.464617
2009-09-22 12:34:44 51°31.539 2°59.49 23.2296 0.031711 0.178115 46.499441
2009-09-22 12:35:44 51°31.365 2°59.4 23.2373 0.0313 0.175789 46.499441
2009-09-22 12:36:44 51°31.194 2°59.316 23.2455 0.031403 0.176358 45.942256
2009-09-22 12:37:44 51°31.019 2°59.223 23.2525 0.029962 0.168175 46.011904
2009-09-22 12:38:43 51°30.848 2°59.133 23.2549 0.030682 0.172256 45.942256
2009-09-22 12:39:44 51°30.671 2°59.04 23.263 0.0313 0.175739 45.97708
2009-09-22 12:40:43 51°30.501 2°58.952 23.2725 0.029756 0.16698 46.011904
2009-09-22 12:41:44 51°30.322 2°58.86 23.28 0.030271 0.169871 46.011904
2009-09-22 12:42:44 51°30.153 2°58.776 23.2862 0.031608 0.177489 46.151201
2009-09-22 12:43:44 51°29.982 2°58.696 23.2857 0.031711 0.178054 45.907432
2009-09-22 12:44:44 51°29.814 2°58.612 23.2933 0.03202 0.179812 46.011904
2009-09-22 12:45:44 51°29.648 2°58.532 23.3029 0.030888 0.17335 46.151201
2009-09-22 12:46:44 51°29.476 2°58.44 23.3106 0.030991 0.173909 46.186025
2009-09-22 12:47:44 51°29.308 2°58.361 23.3188 0.030374 0.170414 46.220849
2009-09-22 12:48:44 51°29.144 2°58.278 23.3211 0.030682 0.172167 46.151201
2009-09-22 12:49:43 51°28.98 2°58.197 23.3303 0.032329 0.181521 46.255673
2009-09-22 12:50:43 51°28.812 2°58.114 23.3308 0.031608 0.177419 46.151201
2009-09-22 12:51:44 51°28.645 2°58.032 23.3418 0.029447 0.165185 46.325321
2009-09-22 12:52:43 51°28.479 2°57.952 23.3425 0.032946 0.185013 46.255673
2009-09-22 12:53:44 51°28.307 2°57.868 23.3439 0.032123 0.180297 46.290497
2009-09-22 12:54:43 51°28.141 2°57.789 23.3519 0.0313 0.175619 46.220849
2009-09-22 12:55:43 51°27.973 2°57.708 23.3558 0.031403 0.176213 46.429793
2009-09-22 12:56:43 51°27.804 2°57.626 23.3731 0.030374 0.170366 46.569089
2009-09-22 12:57:43 51°27.636 2°57.539 23.3713 0.030682 0.172106 46.429793
2009-09-22 12:58:43 51°27.466 2°57.459 23.3807 0.030785 0.172711 46.464617
2009-09-22 12:59:43 51°27.298 2°57.378 23.3808 0.030476 0.170934 46.499441
2009-09-22 13:00:44 51°27.126 2°57.297 23.383 0.032226 0.180859 46.429793
2009-09-22 13:01:43 51°26.959 2°57.22 23.3997 0.030682 0.172106 46.534265
2009-09-22 13:02:44 51°26.787 2°57.152 23.3979 0.030271 0.169768 46.499441
2009-09-22 13:03:43 51°26.621 2°57.087 23.4081 0.030271 0.169753 46.499441
2009-09-22 13:04:43 51°26.448 2°57.021 23.4089 0.029859 0.167408 46.603913
2009-09-22 13:05:43 51°26.274 2°56.957 23.4201 0.030785 0.17264 46.603913
2009-09-22 13:06:44 51°26.104 2°56.885 23.4254 0.031094 0.174402 46.638737
2009-09-22 13:07:43 51°25.944 2°56.793 23.4356 0.02955 0.165629 46.743209
2009-09-22 13:08:43 51°25.783 2°56.696 23.4379 0.029036 0.162727 46.708385
2009-09-22 13:09:47 51°25.625 2°56.621 23.4419 0.031814 0.178486 48.240644
2009-09-22 13:10:46 51°25.483 2°56.548 23.4431 0.031197 0.174961 47.962051
2009-09-22 13:11:44 51°25.331 2°56.462 23.448 0.031917 0.179038 47.962051
2009-09-22 13:12:45 51°25.175 2°56.376 23.4554 0.030682 0.17202 47.753107
2009-09-22 13:13:44 51°25.024 2°56.296 23.4655 0.029756 0.166766 47.857579
2009-09-22 13:14:44 51°24.874 2°56.218 23.4712 0.031711 0.177851 47.892403
2009-09-22 13:15:44 51°24.721 2°56.133 23.473 0.030476 0.170827 48.066524
2009-09-22 13:16:43 51°24.571 2°56.051 23.482 0.030065 0.16848 48.20582
2009-09-22 13:17:43 51°24.419 2°55.967 23.478 0.030271 0.16965 48.170996
2009-09-22 13:18:43 51°24.269 2°55.885 23.4902 0.030476 0.170809 48.345116
2009-09-22 13:19:45 51°24.122 2°55.815 23.495 0.02883 0.161485 48.37994
2009-09-22 13:20:47 51°23.979 2°55.747 23.4982 0.033564 0.188325 48.031699
2009-09-22 13:21:45 51°23.841 2°55.677 23.4996 0.03274 0.183605 47.927227
2009-09-22 13:22:44 51°23.697 2°55.598 23.5071 0.032638 0.183041 47.996875
2009-09-22 13:23:44 51°23.546 2°55.516 23.5086 0.029653 0.166108 48.031699
2009-09-22 13:24:43 51°23.4 2°55.442 23.5218 0.0313 0.1754 47.996875
2009-09-22 13:25:43 51°23.251 2°55.361 23.5267 0.030785 0.172471 47.996875
2009-09-22 13:26:43 51°23.1 2°55.281 23.5335 0.032638 0.182962 48.031699
2009-09-22 13:27:44 51°22.949 2°55.197 23.5355 0.030168 0.168936 47.996875
2009-09-22 13:28:43 51°22.805 2°55.122 23.5443 0.0313 0.175332 48.066524
2009-09-22 13:29:44 51°22.655 2°55.046 23.5355 0.030271 0.169491 47.996875
2009-09-22 13:30:43 51°22.508 2°54.97 23.5527 0.031608 0.177077 48.136172
2009-09-22 13:31:43 51°22.359 2°54.891 23.5481 0.030579 0.17123 48.031699
2009-09-22 13:32:43 51°22.208 2°54.814 23.5469 0.030271 0.169485 47.996875
2009-09-22 13:33:43 51°22.059 2°54.741 23.5672 0.030271 0.169488 48.37994
2009-09-22 13:34:43 51°21.911 2°54.679 23.5685 0.031711 0.177638 48.240644
2009-09-22 13:35:43 51°21.761 2°54.614 23.5716 0.031197 0.174708 48.240644
2009-09-22 13:36:43 51°21.61 2°54.544 23.5727 0.030168 0.168873 48.275468
2009-09-22 13:37:43 51°21.464 2°54.478 23.5865 0.031094 0.174117 48.240644
2009-09-22 13:38:44 51°21.313 2°54.408 23.5809 0.030271 0.169431 48.170996
2009-09-22 13:39:44 51°21.162 2°54.335 23.5922 0.030888 0.172909 48.20582
2009-09-22 13:40:43 51°21.013 2°54.263 23.6057 0.030476 0.170576 48.310292
2009-09-22 13:41:44 51°20.861 2°54.192 23.6098 0.030476 0.170557 48.20582
2009-09-22 13:42:43 51°20.721 2°54.131 23.5942 0.031094 0.174073 47.996875
2009-09-22 13:43:44 51°20.578 2°54.068 23.6117 0.031094 0.174055 48.136172
2009-09-22 13:44:43 51°20.433 2°53.999 23.6151 0.030374 0.169961 48.240644
2009-09-22 13:45:44 51°20.284 2°53.93 23.6212 0.029756 0.166445 48.136172
2009-09-22 13:46:43 51°20.147 2°53.871 23.6287 0.030785 0.172269 48.275468
2009-09-22 13:47:43 51°20.01 2°53.79 23.6265 0.031506 0.176362 48.20582
2009-09-22 13:48:44 51°19.87 2°53.704 23.6268 0.030374 0.169943 48.20582
2009-09-22 13:49:43 51°19.733 2°53.618 23.6308 0.030579 0.171057 48.240644
2009-09-22 13:50:44 51°19.591 2°53.529 23.6331 0.029962 0.167577 48.275468
2009-09-22 13:51:43 51°19.452 2°53.442 23.6379 0.031711 0.177442 48.170996
2009-09-22 13:52:44 51°19.311 2°53.355 23.6513 0.030476 0.170458 47.927227
2009-09-22 13:53:43 51°19.175 2°53.275 23.6484 0.030168 0.168709 47.962051
2009-09-22 13:54:44 51°19.034 2°53.184 23.6642 0.030168 0.168694 48.101348
2009-09-22 13:55:44 51°18.895 2°53.094 23.6645 0.030374 0.169867 48.066524
2009-09-22 13:56:43 51°18.761 2°53.015 23.6687 0.031403 0.175652 47.996875
2009-09-22 13:57:44 51°18.623 2°52.932 23.6656 0.032226 0.180285 48.066524
2009-09-22 13:58:42 51°18.493 2°52.849 23.6762 0.0313 0.17502 48.20582
2009-09-22 13:59:44 51°18.351 2°52.766 23.6836 0.030682 0.171499 48.275468
2009-09-22 14:00:44 51°18.214 2°52.683 23.6909 0.030682 0.171508 48.310292
2009-09-22 14:01:44 51°18.076 2°52.592 23.6906 0.030168 0.168568 48.310292
2009-09-22 14:02:43 51°17.941 2°52.515 23.6959 0.0313 0.17497 48.275468
2009-09-22 14:03:43 51°17.802 2°52.44 23.6993 0.031608 0.176715 48.345116
2009-09-22 14:04:43 51°17.654 2°52.389 23.6881 0.033152 0.185452 48.170996
2009-09-22 14:05:42 51°17.508 2°52.361 23.704 0.032329 0.180793 48.37994
2009-09-22 14:06:44 51°17.353 2°52.33 23.7021 0.031197 0.174349 48.449588
2009-09-22 14:07:43 51°17.196 2°52.343 23.7021 0.032432 0.181327 48.37994
2009-09-22 14:08:44 51°17.04 2°52.478 23.7216 0.032123 0.179596 48.449588
2009-09-22 14:09:43 51°16.891 2°52.627 23.7237 0.031094 0.173761 48.55406
2009-09-22 14:10:43 51°16.734 2°52.767 23.7144 0.031608 0.176621 48.519236
2009-09-22 14:11:43 51°16.578 2°52.92 23.7198 0.032432 0.181234 48.519236
2009-09-22 14:12:44 51°16.417 2°53.071 23.735 0.031197 0.174234 48.588884
2009-09-22 14:13:44 51°16.259 2°53.215 23.7366 0.030785 0.171882 48.623708
2009-09-22 14:14:43 51°16.101 2°53.331 23.7527 0.031917 0.17828 48.728181
2009-09-22 14:15:44 51°15.935 2°53.415 23.7335 0.031506 0.175902 48.693356
2009-09-22 14:16:43 51°15.773 2°53.505 23.7566 0.031197 0.174157 48.728181
2009-09-22 14:17:44 51°15.607 2°53.595 23.7851 0.031197 0.174129 48.937125
2009-09-22 14:18:43 51°15.447 2°53.683 23.7547 0.030682 0.171238 48.797829
2009-09-22 14:19:44 51°15.28 2°53.774 23.7721 0.031506 0.175831 48.902301
2009-09-22 14:20:44 51°15.124 2°53.888 23.7842 0.030374 0.169465 48.937125
2009-09-22 14:21:43 51°14.981 2°54.063 23.7722 0.030168 0.168298 48.867477
2009-09-22 14:22:44 51°14.839 2°54.262 23.7755 0.032535 0.181602 48.797829
2009-09-22 14:23:44 51°14.707 2°54.479 23.7674 0.02955 0.164786 48.937125
2009-09-22 14:24:44 51°14.574 2°54.698 23.7944 0.030271 0.168814 49.006773
2009-09-22 14:25:43 51°14.444 2°54.916 23.7713 0.030271 0.168832 48.971949
2009-09-22 14:26:44 51°14.317 2°55.152 23.7899 0.031711 0.17692 49.041597
2009-09-22 14:27:44 51°14.197 2°55.348 23.7849 0.028727 0.160069 49.041597
2009-09-22 14:28:44 51°14.058 2°55.464 23.7867 0.029859 0.166458 49.146069
2009-09-22 14:29:44 51°13.946 2°55.545 23.8112 0.030991 0.172819 49.215717
2009-09-22 14:30:43 51°13.842 2°55.62 23.8047 0.030991 0.172798 49.215717
2009-09-22 14:31:44 51°13.756 2°55.716 23.8214 0.031814 0.177437 49.285365
2009-09-22 14:32:43 51°13.704 2°55.818 23.8304 0.031608 0.17623 49.320189
2009-09-22 14:33:44 51°13.67 2°55.912 23.8482 0.03202 0.178541 49.355013
2009-09-22 14:34:43 51°13.661 2°55.959 23.8212 0.030785 0.171509 49.355013